Bookmark and Share
Track history (hours):
 

Lister

Last reported at 2014-Apr-18 21:24 UTC. Time now 2014-Apr-20 00:42 UTC.
Position N 59°60' E 026°41'.

Length 89 m; draft 4.2 m.

Type: Ship. MMSI: 236381000.

NotesDate/timePositionNaut miles runAvg speedWind from/ knotsBaromVisibWave heightAir tempDewpointWater temp
2014-Apr-18 21:24N 59°60' E 026°41'6410.9
2014-Apr-18 15:33N 59°45' E 024°38'1711.4
2014-Apr-18 14:06N 59°41' E 024°06'611.5
2014-Apr-18 13:33N 59°39' E 023°54'1111.5
2014-Apr-18 12:33N 59°36' E 023°32'1111.4
2014-Apr-18 11:33N 59°32' E 023°11'  
2014-Apr-15 22:28N 59°20' E 017°31'  
2014-Apr-11 00:24N 55°39' E 019°14'1011.5
2014-Apr-10 23:33N 55°38' E 018°57'1111.1
2014-Apr-10 22:33N 55°37' E 018°38'1311.5
2014-Apr-10 21:26N 55°36' E 018°15'9511.8
2014-Apr-10 13:19N 55°26' E 015°27'912.0
2014-Apr-10 12:33N 55°25' E 015°11'1212.1
2014-Apr-10 11:34N 55°23' E 014°50'1111.2
2014-Apr-10 10:34N 55°18' E 014°33'1111.5
2014-Apr-10 09:34N 55°10' E 014°17'1211.5
2014-Apr-10 08:33N 55°11' E 013°57'1211.9
2014-Apr-10 07:33N 55°12' E 013°36'1211.8
2014-Apr-10 06:33N 55°14' E 013°16'1211.7
2014-Apr-10 05:34N 55°15' E 012°55'1110.8
2014-Apr-10 04:33N 55°19' E 012°38'1111.0
2014-Apr-10 03:34N 55°30' E 012°41'1111.0
2014-Apr-10 02:34N 55°41' E 012°41'1211.6
2014-Apr-10 01:33N 55°53' E 012°39'1211.8
2014-Apr-10 00:34N 56°04' E 012°36'1211.7
2014-Apr-09 23:34N 56°11' E 012°19'  

Dump ship's entire track history

sailing weather and tide predictions

Lister — ZDHW6 — position and weather